sensor_id;sensor_type;location;lat;lon;timestamp;P1;durP1;ratioP1;P2;durP2;ratioP2
78818;SDS011;68166;55.090;37.460;2023-03-23T00:03:22;3.35;;;1.15;;
78818;SDS011;68166;55.090;37.460;2023-03-23T00:08:26;0.88;;;0.60;;
78818;SDS011;68166;55.090;37.460;2023-03-23T00:13:28;1.95;;;0.80;;
78818;SDS011;68166;55.090;37.460;2023-03-23T00:18:29;2.63;;;1.52;;
78818;SDS011;68166;55.090;37.460;2023-03-23T00:23:30;1.13;;;0.50;;
78818;SDS011;68166;55.090;37.460;2023-03-23T00:28:31;1.35;;;0.80;;
78818;SDS011;68166;55.090;37.460;2023-03-23T00:33:33;2.72;;;1.38;;
78818;SDS011;68166;55.090;37.460;2023-03-23T00:38:38;0.85;;;0.40;;
78818;SDS011;68166;55.090;37.460;2023-03-23T00:43:40;3.20;;;1.05;;
78818;SDS011;68166;55.090;37.460;2023-03-23T00:48:41;1.55;;;0.82;;
78818;SDS011;68166;55.090;37.460;2023-03-23T00:53:44;2.63;;;0.50;;
78818;SDS011;68166;55.090;37.460;2023-03-23T00:58:46;2.53;;;0.85;;
78818;SDS011;68166;55.090;37.460;2023-03-23T01:03:47;2.67;;;0.73;;
78818;SDS011;68166;55.090;37.460;2023-03-23T01:08:49;0.47;;;0.13;;
78818;SDS011;68166;55.090;37.460;2023-03-23T01:13:50;0.95;;;0.60;;
78818;SDS011;68166;55.090;37.460;2023-03-23T01:18:52;1.95;;;1.10;;
78818;SDS011;68166;55.090;37.460;2023-03-23T01:23:53;2.40;;;1.00;;
78818;SDS011;68166;55.090;37.460;2023-03-23T01:28:54;0.85;;;0.25;;
78818;SDS011;68166;55.090;37.460;2023-03-23T01:33:55;2.20;;;0.57;;
78818;SDS011;68166;55.090;37.460;2023-03-23T01:38:56;6.05;;;1.55;;
78818;SDS011;68166;55.090;37.460;2023-03-23T01:44:03;0.80;;;0.63;;
78818;SDS011;68166;55.090;37.460;2023-03-23T01:49:07;1.00;;;0.60;;
78818;SDS011;68166;55.090;37.460;2023-03-23T01:54:14;1.55;;;0.65;;
78818;SDS011;68166;55.090;37.460;2023-03-23T01:59:20;1.83;;;0.80;;
78818;SDS011;68166;55.090;37.460;2023-03-23T02:04:23;0.65;;;0.45;;
78818;SDS011;68166;55.090;37.460;2023-03-23T02:09:25;1.38;;;0.45;;
78818;SDS011;68166;55.090;37.460;2023-03-23T02:14:26;2.40;;;0.93;;
78818;SDS011;68166;55.090;37.460;2023-03-23T02:30:39;1.02;;;0.50;;
78818;SDS011;68166;55.090;37.460;2023-03-23T02:41:19;1.20;;;0.60;;
78818;SDS011;68166;55.090;37.460;2023-03-23T02:46:23;1.23;;;1.00;;
78818;SDS011;68166;55.090;37.460;2023-03-23T02:51:24;0.57;;;0.40;;
78818;SDS011;68166;55.090;37.460;2023-03-23T02:56:26;0.95;;;0.55;;
78818;SDS011;68166;55.090;37.460;2023-03-23T03:11:34;0.55;;;0.30;;
78818;SDS011;68166;55.090;37.460;2023-03-23T03:16:38;4.05;;;0.90;;
78818;SDS011;68166;55.090;37.460;2023-03-23T03:21:41;0.88;;;0.65;;
78818;SDS011;68166;55.090;37.460;2023-03-23T03:26:47;6.55;;;1.30;;
78818;SDS011;68166;55.090;37.460;2023-03-23T03:31:50;2.20;;;0.55;;
78818;SDS011;68166;55.090;37.460;2023-03-23T03:36:55;1.75;;;0.35;;
78818;SDS011;68166;55.090;37.460;2023-03-23T03:41:58;0.60;;;0.40;;
78818;SDS011;68166;55.090;37.460;2023-03-23T03:46:59;1.25;;;0.35;;
78818;SDS011;68166;55.090;37.460;2023-03-23T03:52:00;1.40;;;0.70;;
78818;SDS011;68166;55.090;37.460;2023-03-23T03:57:01;0.50;;;0.40;;
78818;SDS011;68166;55.090;37.460;2023-03-23T04:02:02;1.83;;;1.33;;
78818;SDS011;68166;55.090;37.460;2023-03-23T04:07:03;1.90;;;0.73;;
78818;SDS011;68166;55.090;37.460;2023-03-23T04:12:05;1.50;;;0.65;;
78818;SDS011;68166;55.090;37.460;2023-03-23T04:17:06;2.13;;;0.93;;
78818;SDS011;68166;55.090;37.460;2023-03-23T04:22:10;2.63;;;0.82;;
78818;SDS011;68166;55.090;37.460;2023-03-23T04:27:11;2.08;;;0.95;;
78818;SDS011;68166;55.090;37.460;2023-03-23T04:32:13;1.40;;;0.60;;
78818;SDS011;68166;55.090;37.460;2023-03-23T04:37:14;1.52;;;0.88;;
78818;SDS011;68166;55.090;37.460;2023-03-23T04:42:15;2.40;;;1.13;;
78818;SDS011;68166;55.090;37.460;2023-03-23T04:47:16;2.95;;;1.08;;
78818;SDS011;68166;55.090;37.460;2023-03-23T04:52:17;2.15;;;1.20;;
78818;SDS011;68166;55.090;37.460;2023-03-23T04:57:20;3.40;;;1.65;;
78818;SDS011;68166;55.090;37.460;2023-03-23T05:02:22;2.20;;;1.25;;
78818;SDS011;68166;55.090;37.460;2023-03-23T05:07:23;3.65;;;1.35;;
78818;SDS011;68166;55.090;37.460;2023-03-23T05:12:24;2.60;;;1.20;;
78818;SDS011;68166;55.090;37.460;2023-03-23T05:17:25;4.40;;;1.75;;
78818;SDS011;68166;55.090;37.460;2023-03-23T05:22:27;3.50;;;1.50;;
78818;SDS011;68166;55.090;37.460;2023-03-23T05:27:29;3.88;;;1.63;;
78818;SDS011;68166;55.090;37.460;2023-03-23T05:32:30;2.20;;;0.85;;
78818;SDS011;68166;55.090;37.460;2023-03-23T05:37:32;7.57;;;1.75;;
78818;SDS011;68166;55.090;37.460;2023-03-23T05:42:33;5.07;;;2.25;;
78818;SDS011;68166;55.090;37.460;2023-03-23T05:47:36;3.63;;;1.83;;
78818;SDS011;68166;55.090;37.460;2023-03-23T05:52:37;3.75;;;1.48;;
78818;SDS011;68166;55.090;37.460;2023-03-23T05:57:39;3.38;;;1.70;;
78818;SDS011;68166;55.090;37.460;2023-03-23T06:02:40;2.90;;;1.38;;
78818;SDS011;68166;55.090;37.460;2023-03-23T06:07:45;11.73;;;1.92;;
78818;SDS011;68166;55.090;37.460;2023-03-23T06:12:46;5.53;;;2.42;;
78818;SDS011;68166;55.090;37.460;2023-03-23T06:17:47;4.85;;;2.20;;
78818;SDS011;68166;55.090;37.460;2023-03-23T06:22:50;5.30;;;2.28;;
78818;SDS011;68166;55.090;37.460;2023-03-23T06:32:53;3.72;;;2.22;;
78818;SDS011;68166;55.090;37.460;2023-03-23T06:37:54;5.53;;;1.58;;
78818;SDS011;68166;55.090;37.460;2023-03-23T06:42:57;5.68;;;1.90;;
78818;SDS011;68166;55.090;37.460;2023-03-23T06:48:01;8.57;;;1.73;;
78818;SDS011;68166;55.090;37.460;2023-03-23T06:53:02;8.40;;;2.25;;
78818;SDS011;68166;55.090;37.460;2023-03-23T06:58:04;4.15;;;1.77;;
78818;SDS011;68166;55.090;37.460;2023-03-23T07:03:06;4.90;;;2.10;;
78818;SDS011;68166;55.090;37.460;2023-03-23T07:08:08;5.25;;;2.92;;
78818;SDS011;68166;55.090;37.460;2023-03-23T07:13:09;4.45;;;1.50;;
78818;SDS011;68166;55.090;37.460;2023-03-23T07:18:10;5.18;;;1.90;;
78818;SDS011;68166;55.090;37.460;2023-03-23T07:23:11;3.67;;;1.50;;
78818;SDS011;68166;55.090;37.460;2023-03-23T07:28:12;4.03;;;1.95;;
78818;SDS011;68166;55.090;37.460;2023-03-23T07:33:13;5.95;;;2.67;;
78818;SDS011;68166;55.090;37.460;2023-03-23T07:38:15;3.88;;;2.17;;
78818;SDS011;68166;55.090;37.460;2023-03-23T07:43:16;5.00;;;2.17;;
78818;SDS011;68166;55.090;37.460;2023-03-23T07:48:17;5.32;;;2.13;;
78818;SDS011;68166;55.090;37.460;2023-03-23T07:53:18;6.50;;;2.50;;
78818;SDS011;68166;55.090;37.460;2023-03-23T07:58:21;5.93;;;2.45;;
78818;SDS011;68166;55.090;37.460;2023-03-23T08:03:22;4.05;;;1.67;;
78818;SDS011;68166;55.090;37.460;2023-03-23T08:08:24;4.60;;;2.13;;
78818;SDS011;68166;55.090;37.460;2023-03-23T08:18:26;4.95;;;2.03;;
78818;SDS011;68166;55.090;37.460;2023-03-23T08:23:27;4.50;;;2.17;;
78818;SDS011;68166;55.090;37.460;2023-03-23T08:28:28;4.65;;;2.65;;
78818;SDS011;68166;55.090;37.460;2023-03-23T08:33:29;7.63;;;2.72;;
78818;SDS011;68166;55.090;37.460;2023-03-23T08:38:31;5.55;;;2.15;;
78818;SDS011;68166;55.090;37.460;2023-03-23T08:43:33;4.28;;;1.92;;
78818;SDS011;68166;55.090;37.460;2023-03-23T08:48:34;4.40;;;2.17;;
78818;SDS011;68166;55.090;37.460;2023-03-23T08:53:36;5.57;;;2.30;;
78818;SDS011;68166;55.090;37.460;2023-03-23T08:58:38;4.13;;;2.10;;
78818;SDS011;68166;55.090;37.460;2023-03-23T09:03:39;3.58;;;2.28;;
78818;SDS011;68166;55.090;37.460;2023-03-23T09:08:40;5.57;;;2.50;;
78818;SDS011;68166;55.090;37.460;2023-03-23T09:13:41;5.22;;;1.90;;
78818;SDS011;68166;55.090;37.460;2023-03-23T09:18:42;7.47;;;2.90;;
78818;SDS011;68166;55.090;37.460;2023-03-23T09:28:45;5.30;;;2.13;;
78818;SDS011;68166;55.090;37.460;2023-03-23T09:33:46;6.18;;;2.65;;
78818;SDS011;68166;55.090;37.460;2023-03-23T09:38:54;3.28;;;1.95;;
78818;SDS011;68166;55.090;37.460;2023-03-23T09:49:32;3.55;;;2.08;;
78818;SDS011;68166;55.090;37.460;2023-03-23T09:54:38;8.70;;;2.72;;
78818;SDS011;68166;55.090;37.460;2023-03-23T10:00:00;6.80;;;2.63;;
78818;SDS011;68166;55.090;37.460;2023-03-23T10:10:20;4.25;;;2.00;;
78818;SDS011;68166;55.090;37.460;2023-03-23T10:15:46;3.75;;;2.08;;
78818;SDS011;68166;55.090;37.460;2023-03-23T10:20:48;4.88;;;2.08;;
78818;SDS011;68166;55.090;37.460;2023-03-23T10:25:57;6.70;;;2.40;;
78818;SDS011;68166;55.090;37.460;2023-03-23T10:31:04;4.43;;;1.67;;
78818;SDS011;68166;55.090;37.460;2023-03-23T10:36:24;4.35;;;1.98;;
78818;SDS011;68166;55.090;37.460;2023-03-23T10:41:31;4.85;;;1.45;;
78818;SDS011;68166;55.090;37.460;2023-03-23T10:57:25;5.53;;;2.38;;
78818;SDS011;68166;55.090;37.460;2023-03-23T11:02:29;2.55;;;1.23;;
78818;SDS011;68166;55.090;37.460;2023-03-23T11:07:31;4.15;;;1.65;;
78818;SDS011;68166;55.090;37.460;2023-03-23T11:12:34;3.60;;;1.63;;
78818;SDS011;68166;55.090;37.460;2023-03-23T11:17:35;5.10;;;2.05;;
78818;SDS011;68166;55.090;37.460;2023-03-23T11:22:36;3.00;;;1.42;;
78818;SDS011;68166;55.090;37.460;2023-03-23T11:27:38;3.47;;;1.80;;
78818;SDS011;68166;55.090;37.460;2023-03-23T11:32:42;5.57;;;2.15;;
78818;SDS011;68166;55.090;37.460;2023-03-23T11:37:46;4.75;;;2.03;;
78818;SDS011;68166;55.090;37.460;2023-03-23T11:58:13;4.80;;;1.90;;
78818;SDS011;68166;55.090;37.460;2023-03-23T12:03:16;3.25;;;1.52;;
78818;SDS011;68166;55.090;37.460;2023-03-23T12:08:22;3.92;;;1.77;;
78818;SDS011;68166;55.090;37.460;2023-03-23T12:56:26;2.80;;;1.30;;
78818;SDS011;68166;55.090;37.460;2023-03-23T13:01:32;2.20;;;1.10;;
78818;SDS011;68166;55.090;37.460;2023-03-23T13:06:44;4.60;;;1.75;;
78818;SDS011;68166;55.090;37.460;2023-03-23T13:11:47;3.05;;;1.35;;
78818;SDS011;68166;55.090;37.460;2023-03-23T13:16:55;3.53;;;1.67;;
78818;SDS011;68166;55.090;37.460;2023-03-23T13:22:23;3.35;;;1.48;;
78818;SDS011;68166;55.090;37.460;2023-03-23T13:27:29;3.15;;;1.83;;
78818;SDS011;68166;55.090;37.460;2023-03-23T13:32:35;3.67;;;1.95;;
78818;SDS011;68166;55.090;37.460;2023-03-23T13:37:41;2.75;;;1.42;;
78818;SDS011;68166;55.090;37.460;2023-03-23T13:42:50;4.13;;;1.42;;
78818;SDS011;68166;55.090;37.460;2023-03-23T13:48:16;5.97;;;1.77;;
78818;SDS011;68166;55.090;37.460;2023-03-23T13:58:26;4.80;;;1.60;;
78818;SDS011;68166;55.090;37.460;2023-03-23T14:03:38;6.78;;;1.65;;
78818;SDS011;68166;55.090;37.460;2023-03-23T14:08:41;4.10;;;1.70;;
78818;SDS011;68166;55.090;37.460;2023-03-23T14:19:03;4.18;;;2.17;;
78818;SDS011;68166;55.090;37.460;2023-03-23T14:24:25;3.35;;;1.30;;
78818;SDS011;68166;55.090;37.460;2023-03-23T14:29:28;4.13;;;1.70;;
78818;SDS011;68166;55.090;37.460;2023-03-23T14:34:30;2.53;;;1.35;;
78818;SDS011;68166;55.090;37.460;2023-03-23T14:39:32;3.53;;;1.77;;
78818;SDS011;68166;55.090;37.460;2023-03-23T14:44:37;2.95;;;1.58;;
78818;SDS011;68166;55.090;37.460;2023-03-23T14:49:41;5.80;;;1.67;;
78818;SDS011;68166;55.090;37.460;2023-03-23T14:54:44;3.13;;;1.13;;
78818;SDS011;68166;55.090;37.460;2023-03-23T14:59:46;3.28;;;1.45;;
78818;SDS011;68166;55.090;37.460;2023-03-23T15:04:49;2.97;;;1.42;;
78818;SDS011;68166;55.090;37.460;2023-03-23T15:09:52;3.22;;;1.40;;
78818;SDS011;68166;55.090;37.460;2023-03-23T15:20:11;5.22;;;2.78;;
78818;SDS011;68166;55.090;37.460;2023-03-23T15:25:29;3.47;;;1.25;;
78818;SDS011;68166;55.090;37.460;2023-03-23T15:30:32;3.72;;;1.58;;
78818;SDS011;68166;55.090;37.460;2023-03-23T15:35:36;4.18;;;1.63;;
78818;SDS011;68166;55.090;37.460;2023-03-23T15:40:39;4.25;;;1.65;;
78818;SDS011;68166;55.090;37.460;2023-03-23T15:45:58;3.65;;;1.73;;
78818;SDS011;68166;55.090;37.460;2023-03-23T15:51:03;4.05;;;1.73;;
78818;SDS011;68166;55.090;37.460;2023-03-23T15:56:05;5.78;;;1.60;;
78818;SDS011;68166;55.090;37.460;2023-03-23T16:01:12;3.03;;;1.35;;
78818;SDS011;68166;55.090;37.460;2023-03-23T16:06:19;3.42;;;1.98;;
78818;SDS011;68166;55.090;37.460;2023-03-23T16:11:21;2.97;;;1.70;;
78818;SDS011;68166;55.090;37.460;2023-03-23T16:16:26;3.47;;;1.77;;
78818;SDS011;68166;55.090;37.460;2023-03-23T16:21:31;7.30;;;2.58;;
78818;SDS011;68166;55.090;37.460;2023-03-23T16:26:32;3.53;;;1.50;;
78818;SDS011;68166;55.090;37.460;2023-03-23T16:31:34;3.47;;;1.77;;
78818;SDS011;68166;55.090;37.460;2023-03-23T16:36:35;4.03;;;1.70;;
78818;SDS011;68166;55.090;37.460;2023-03-23T16:46:37;4.05;;;1.83;;
78818;SDS011;68166;55.090;37.460;2023-03-23T16:56:40;3.13;;;1.55;;
78818;SDS011;68166;55.090;37.460;2023-03-23T17:01:45;2.65;;;1.02;;
78818;SDS011;68166;55.090;37.460;2023-03-23T17:06:47;2.55;;;1.05;;
78818;SDS011;68166;55.090;37.460;2023-03-23T17:11:50;2.78;;;1.20;;
78818;SDS011;68166;55.090;37.460;2023-03-23T17:16:52;4.07;;;1.75;;
78818;SDS011;68166;55.090;37.460;2023-03-23T17:21:53;3.05;;;1.48;;
78818;SDS011;68166;55.090;37.460;2023-03-23T17:26:54;3.88;;;1.48;;
78818;SDS011;68166;55.090;37.460;2023-03-23T17:31:55;2.85;;;0.88;;
78818;SDS011;68166;55.090;37.460;2023-03-23T17:36:56;2.85;;;1.45;;
78818;SDS011;68166;55.090;37.460;2023-03-23T17:41:58;3.67;;;1.88;;
78818;SDS011;68166;55.090;37.460;2023-03-23T17:46:59;3.22;;;1.50;;
78818;SDS011;68166;55.090;37.460;2023-03-23T17:52:00;4.28;;;1.88;;
78818;SDS011;68166;55.090;37.460;2023-03-23T18:02:03;5.50;;;1.92;;
78818;SDS011;68166;55.090;37.460;2023-03-23T18:07:04;3.60;;;1.48;;
78818;SDS011;68166;55.090;37.460;2023-03-23T18:12:05;3.13;;;1.60;;
78818;SDS011;68166;55.090;37.460;2023-03-23T18:22:07;3.70;;;1.75;;
78818;SDS011;68166;55.090;37.460;2023-03-23T18:27:08;4.22;;;1.88;;
78818;SDS011;68166;55.090;37.460;2023-03-23T18:32:09;4.63;;;2.00;;
78818;SDS011;68166;55.090;37.460;2023-03-23T18:37:11;5.93;;;2.47;;
78818;SDS011;68166;55.090;37.460;2023-03-23T18:42:12;8.32;;;1.88;;
78818;SDS011;68166;55.090;37.460;2023-03-23T18:47:13;6.63;;;2.47;;
78818;SDS011;68166;55.090;37.460;2023-03-23T18:52:14;5.97;;;2.33;;
78818;SDS011;68166;55.090;37.460;2023-03-23T18:57:15;4.57;;;2.22;;
78818;SDS011;68166;55.090;37.460;2023-03-23T19:02:17;2.88;;;2.03;;
78818;SDS011;68166;55.090;37.460;2023-03-23T19:07:19;5.35;;;1.98;;
78818;SDS011;68166;55.090;37.460;2023-03-23T19:12:20;4.43;;;2.38;;
78818;SDS011;68166;55.090;37.460;2023-03-23T19:17:22;6.57;;;2.38;;
78818;SDS011;68166;55.090;37.460;2023-03-23T19:22:24;9.15;;;2.45;;
78818;SDS011;68166;55.090;37.460;2023-03-23T19:27:25;6.80;;;2.70;;
78818;SDS011;68166;55.090;37.460;2023-03-23T19:32:26;7.70;;;2.92;;
78818;SDS011;68166;55.090;37.460;2023-03-23T19:37:27;3.80;;;2.47;;
78818;SDS011;68166;55.090;37.460;2023-03-23T19:47:29;4.13;;;2.60;;
78818;SDS011;68166;55.090;37.460;2023-03-23T19:52:31;6.03;;;2.15;;
78818;SDS011;68166;55.090;37.460;2023-03-23T19:57:32;6.13;;;2.08;;
78818;SDS011;68166;55.090;37.460;2023-03-23T20:02:34;7.30;;;2.95;;
78818;SDS011;68166;55.090;37.460;2023-03-23T20:07:35;5.38;;;2.53;;
78818;SDS011;68166;55.090;37.460;2023-03-23T20:12:36;8.10;;;3.33;;
78818;SDS011;68166;55.090;37.460;2023-03-23T20:17:37;6.85;;;2.55;;
78818;SDS011;68166;55.090;37.460;2023-03-23T20:22:38;4.10;;;2.58;;
78818;SDS011;68166;55.090;37.460;2023-03-23T20:27:39;4.65;;;2.28;;
78818;SDS011;68166;55.090;37.460;2023-03-23T20:32:41;5.93;;;2.45;;
78818;SDS011;68166;55.090;37.460;2023-03-23T20:37:45;4.80;;;2.22;;
78818;SDS011;68166;55.090;37.460;2023-03-23T20:42:49;5.03;;;2.50;;
78818;SDS011;68166;55.090;37.460;2023-03-23T20:47:53;4.78;;;3.05;;
78818;SDS011;68166;55.090;37.460;2023-03-23T20:52:54;4.75;;;2.65;;
78818;SDS011;68166;55.090;37.460;2023-03-23T20:57:56;6.82;;;2.97;;
78818;SDS011;68166;55.090;37.460;2023-03-23T21:02:58;6.20;;;2.70;;
78818;SDS011;68166;55.090;37.460;2023-03-23T21:07:59;4.85;;;2.42;;
78818;SDS011;68166;55.090;37.460;2023-03-23T21:13:00;6.20;;;2.50;;
78818;SDS011;68166;55.090;37.460;2023-03-23T21:18:01;6.75;;;2.20;;
78818;SDS011;68166;55.090;37.460;2023-03-23T21:23:03;4.63;;;2.00;;
78818;SDS011;68166;55.090;37.460;2023-03-23T21:28:07;3.92;;;1.92;;
78818;SDS011;68166;55.090;37.460;2023-03-23T21:33:08;5.78;;;2.92;;
78818;SDS011;68166;55.090;37.460;2023-03-23T21:38:10;5.70;;;2.90;;
78818;SDS011;68166;55.090;37.460;2023-03-23T21:43:13;6.78;;;2.97;;
78818;SDS011;68166;55.090;37.460;2023-03-23T21:48:15;3.45;;;1.77;;
78818;SDS011;68166;55.090;37.460;2023-03-23T21:53:16;4.25;;;2.35;;
78818;SDS011;68166;55.090;37.460;2023-03-23T21:58:18;10.98;;;2.63;;
78818;SDS011;68166;55.090;37.460;2023-03-23T22:03:22;5.85;;;3.00;;
78818;SDS011;68166;55.090;37.460;2023-03-23T22:08:25;5.65;;;2.78;;
78818;SDS011;68166;55.090;37.460;2023-03-23T22:13:28;5.65;;;2.80;;
78818;SDS011;68166;55.090;37.460;2023-03-23T22:18:30;4.82;;;2.60;;
78818;SDS011;68166;55.090;37.460;2023-03-23T22:23:33;5.03;;;2.63;;
78818;SDS011;68166;55.090;37.460;2023-03-23T22:28:35;5.32;;;2.75;;
78818;SDS011;68166;55.090;37.460;2023-03-23T22:33:37;4.65;;;2.97;;
78818;SDS011;68166;55.090;37.460;2023-03-23T22:38:39;8.30;;;3.60;;
78818;SDS011;68166;55.090;37.460;2023-03-23T22:43:41;6.07;;;2.72;;
78818;SDS011;68166;55.090;37.460;2023-03-23T22:48:42;5.18;;;2.78;;
78818;SDS011;68166;55.090;37.460;2023-03-23T22:53:44;8.77;;;3.05;;
78818;SDS011;68166;55.090;37.460;2023-03-23T22:58:45;4.50;;;2.45;;
78818;SDS011;68166;55.090;37.460;2023-03-23T23:03:46;7.40;;;3.00;;
78818;SDS011;68166;55.090;37.460;2023-03-23T23:08:48;5.85;;;2.67;;
78818;SDS011;68166;55.090;37.460;2023-03-23T23:13:50;4.90;;;2.67;;
78818;SDS011;68166;55.090;37.460;2023-03-23T23:23:53;5.90;;;3.53;;
78818;SDS011;68166;55.090;37.460;2023-03-23T23:28:54;7.40;;;3.13;;
78818;SDS011;68166;55.090;37.460;2023-03-23T23:33:56;5.82;;;3.47;;
78818;SDS011;68166;55.090;37.460;2023-03-23T23:38:59;7.53;;;3.55;;
78818;SDS011;68166;55.090;37.460;2023-03-23T23:44:00;5.97;;;2.45;;
78818;SDS011;68166;55.090;37.460;2023-03-23T23:54:03;5.95;;;3.40;;
78818;SDS011;68166;55.090;37.460;2023-03-23T23:59:04;8.35;;;3.17;;
